createdAt,value
2023-06-06T00:00:04.496Z,3.212
2023-06-06T00:15:47.170Z,3.212
2023-06-06T00:31:29.500Z,3.212
2023-06-06T00:47:12.508Z,3.21
2023-06-06T01:02:55.288Z,3.21
2023-06-06T01:18:37.478Z,3.209
2023-06-06T01:34:19.944Z,3.21
2023-06-06T02:21:27.249Z,3.209
2023-06-06T02:37:09.568Z,3.212
2023-06-06T02:52:52.283Z,3.209
2023-06-06T03:08:34.978Z,3.209
2023-06-06T03:24:17.189Z,3.207
2023-06-06T03:39:59.814Z,3.209
2023-06-06T04:11:24.818Z,3.209
2023-06-06T04:27:14.400Z,3.209
2023-06-06T04:42:49.569Z,3.212
2023-06-06T05:14:14.719Z,3.229
2023-06-06T05:29:57.657Z,3.235
2023-06-06T06:01:21.947Z,3.257
2023-06-06T06:17:11.667Z,3.307
2023-06-06T06:32:47.477Z,3.304
2023-06-06T06:48:36.815Z,3.293
2023-06-06T07:04:18.839Z,3.282
2023-06-06T07:19:53.771Z,3.275
2023-06-06T07:35:50.363Z,3.268
2023-06-06T07:51:19.046Z,3.263
2023-06-06T08:07:08.500Z,3.259
2023-06-06T08:22:43.665Z,3.254
2023-06-06T08:38:26.261Z,3.444
2023-06-06T08:54:08.234Z,3.416
2023-06-06T09:09:50.438Z,3.397
2023-06-06T09:25:33.056Z,3.38
2023-06-06T09:41:15.380Z,3.366
2023-06-06T09:56:57.524Z,3.353
2023-06-06T10:12:40.036Z,3.341
2023-06-06T10:28:22.029Z,3.33
2023-06-06T10:44:04.886Z,3.308
2023-06-06T10:59:47.354Z,3.3
2023-06-06T11:15:29.950Z,3.293
2023-06-06T11:31:12.382Z,3.286
2023-06-06T11:46:54.841Z,3.279
2023-06-06T12:02:37.479Z,3.272
2023-06-06T12:18:19.771Z,3.267
2023-06-06T12:34:02.129Z,3.263
2023-06-06T12:49:44.240Z,3.259
2023-06-06T13:05:26.641Z,3.253
2023-06-06T13:21:08.870Z,3.271
2023-06-06T13:36:51.408Z,3.297
2023-06-06T13:52:34.258Z,3.335
2023-06-06T14:08:17.150Z,3.31
2023-06-06T14:23:59.943Z,3.3
2023-06-06T14:39:42.204Z,3.292
2023-06-06T14:55:25.004Z,3.283
2023-06-06T15:11:06.972Z,3.278
2023-06-06T15:26:49.263Z,3.271
2023-06-06T15:42:31.521Z,3.265
2023-06-06T15:58:14.365Z,3.261
2023-06-06T16:13:56.527Z,3.256
2023-06-06T16:29:38.553Z,3.252
2023-06-06T16:45:20.674Z,3.265
2023-06-06T17:01:03.351Z,3.27
2023-06-06T17:16:45.484Z,3.268
2023-06-06T17:32:27.716Z,3.264
2023-06-06T17:33:16.097Z,3.257
2023-06-06T17:48:58.459Z,3.254
2023-06-06T18:04:41.298Z,3.25
2023-06-06T18:20:23.350Z,3.247
2023-06-06T18:36:05.744Z,3.243
2023-06-06T18:51:48.114Z,3.241
2023-06-06T19:07:30.986Z,3.238
2023-06-06T19:23:13.899Z,3.235
2023-06-06T19:38:56.378Z,3.232
2023-06-06T19:54:38.416Z,3.232
2023-06-06T20:10:20.963Z,3.229
2023-06-06T20:26:03.651Z,3.228
2023-06-06T20:57:28.664Z,3.218
2023-06-06T21:13:11.154Z,3.218
2023-06-06T21:28:54.086Z,3.218
2023-06-06T21:44:37.052Z,3.216
2023-06-06T22:00:19.573Z,3.216
2023-06-06T22:16:02.400Z,3.214
2023-06-06T22:31:44.516Z,3.214
2023-06-06T22:47:27.402Z,3.214
2023-06-06T23:03:09.599Z,3.214
2023-06-06T23:18:51.685Z,3.212
2023-06-06T23:34:34.264Z,3.212
2023-06-06T23:50:16.525Z,3.212
